createdAt,value
2022-10-02T00:02:36.226Z,20.67
2022-10-02T00:05:54.305Z,20.63
2022-10-02T00:09:03.655Z,20.54
2022-10-02T00:12:08.873Z,20.63
2022-10-02T00:15:18.991Z,20.64
2022-10-02T00:18:26.043Z,20.51
2022-10-02T00:21:49.903Z,20.62
2022-10-02T00:25:16.573Z,20.52
2022-10-02T00:28:40.784Z,20.60
2022-10-02T00:32:04.422Z,20.51
2022-10-02T00:35:37.482Z,20.56
2022-10-02T00:38:55.494Z,20.56
2022-10-02T00:42:32.666Z,20.56
2022-10-02T00:45:46.566Z,20.57
2022-10-02T00:49:05.597Z,20.47
2022-10-02T00:52:32.957Z,20.56
2022-10-02T00:55:42.726Z,20.50
2022-10-02T00:58:50.539Z,20.52
2022-10-02T01:01:59.902Z,20.49
2022-10-02T01:05:05.537Z,20.43
2022-10-02T01:08:08.121Z,20.42
2022-10-02T01:11:10.341Z,20.40
2022-10-02T01:14:12.769Z,20.38
2022-10-02T01:17:34.606Z,20.40
2022-10-02T01:20:41.865Z,20.40
2022-10-02T01:24:03.935Z,20.42
2022-10-02T01:27:07.259Z,20.37
2022-10-02T01:30:20.560Z,20.34
2022-10-02T01:33:23.276Z,20.34
2022-10-02T01:36:25.960Z,20.28
2022-10-02T01:39:28.576Z,20.38
2022-10-02T01:42:30.761Z,20.41
2022-10-02T01:46:02.037Z,20.41
2022-10-02T01:49:16.407Z,20.34
2022-10-02T01:52:46.070Z,20.31
2022-10-02T01:56:14.888Z,20.29
2022-10-02T01:59:30.022Z,20.14
2022-10-02T02:02:56.520Z,20.22
2022-10-02T02:06:09.706Z,20.20
2022-10-02T02:09:21.847Z,20.16
2022-10-02T02:12:32.979Z,20.12
2022-10-02T02:15:43.980Z,20.29
2022-10-02T02:19:16.562Z,20.29
2022-10-02T02:22:26.821Z,20.29
2022-10-02T02:25:34.284Z,20.31
2022-10-02T02:28:40.718Z,20.29
2022-10-02T02:31:53.592Z,20.33
2022-10-02T02:35:04.547Z,20.27
2022-10-02T02:38:12.791Z,20.31
2022-10-02T02:41:21.085Z,20.28
2022-10-02T02:44:34.491Z,20.29
2022-10-02T02:47:48.502Z,20.31
2022-10-02T02:51:01.719Z,20.26
2022-10-02T02:54:10.727Z,20.22
2022-10-02T02:57:15.971Z,20.14
2022-10-02T03:00:20.206Z,20.16
2022-10-02T03:03:22.322Z,20.05
2022-10-02T03:06:38.649Z,20.01
2022-10-02T03:09:41.221Z,20.03
2022-10-02T03:12:52.206Z,20.12
2022-10-02T03:16:12.979Z,20.19
2022-10-02T03:19:45.750Z,20.21
2022-10-02T03:22:50.815Z,20.18
2022-10-02T03:26:00.616Z,20.16
2022-10-02T03:29:07.208Z,20.21
2022-10-02T03:32:14.539Z,20.17
2022-10-02T03:35:17.768Z,20.23
2022-10-02T03:38:22.497Z,20.25
2022-10-02T03:41:24.621Z,20.21
2022-10-02T03:44:27.034Z,20.15
2022-10-02T03:47:29.147Z,20.09
2022-10-02T03:50:35.536Z,20.06
2022-10-02T03:53:40.910Z,20.12
2022-10-02T03:57:03.666Z,20.15
2022-10-02T04:00:27.136Z,20.14
2022-10-02T04:03:36.952Z,20.31
2022-10-02T04:06:57.105Z,20.19
2022-10-02T04:10:37.000Z,20.22
2022-10-02T04:13:46.411Z,20.28
2022-10-02T04:17:02.467Z,20.27
2022-10-02T04:20:15.148Z,20.23
2022-10-02T04:23:23.943Z,20.26
2022-10-02T04:26:35.094Z,20.19
2022-10-02T04:29:43.675Z,20.16
2022-10-02T04:32:46.048Z,20.22
2022-10-02T04:35:51.568Z,20.31
2022-10-02T04:39:31.592Z,20.20
2022-10-02T04:42:39.954Z,20.26
2022-10-02T04:45:54.054Z,20.27
2022-10-02T04:49:05.633Z,20.31
2022-10-02T04:52:24.506Z,20.50
2022-10-02T04:55:51.497Z,20.54
2022-10-02T04:59:02.943Z,20.36
2022-10-02T05:02:09.658Z,20.22
2022-10-02T05:05:35.562Z,20.28
2022-10-02T05:08:59.446Z,20.46
2022-10-02T05:12:10.493Z,20.61
2022-10-02T05:15:51.418Z,20.56
2022-10-02T05:19:04.449Z,20.61
2022-10-02T05:22:25.010Z,20.51
2022-10-02T05:25:47.036Z,20.34
2022-10-02T05:29:07.885Z,20.36
2022-10-02T05:32:48.912Z,20.34
2022-10-02T05:36:17.950Z,20.22
2022-10-02T05:39:40.701Z,20.19
2022-10-02T05:43:10.186Z,20.11
2022-10-02T05:46:36.443Z,20.15
2022-10-02T05:49:44.971Z,20.18
2022-10-02T05:52:54.326Z,20.40
2022-10-02T05:56:04.874Z,20.49
2022-10-02T05:59:26.598Z,20.59
2022-10-02T06:02:40.431Z,20.68
2022-10-02T06:05:55.604Z,20.70
2022-10-02T06:09:19.808Z,20.74
2022-10-02T06:12:30.651Z,20.82
2022-10-02T06:15:43.904Z,20.84
2022-10-02T06:18:51.023Z,20.85
2022-10-02T06:22:13.874Z,20.87
2022-10-02T06:25:47.555Z,20.94
2022-10-02T06:28:58.391Z,20.98
2022-10-02T06:32:16.778Z,21.07
2022-10-02T06:35:35.613Z,21.20
2022-10-02T06:38:59.419Z,21.25
2022-10-02T06:42:43.157Z,21.22
2022-10-02T06:46:01.205Z,21.17
2022-10-02T06:49:12.275Z,21.33
2022-10-02T06:52:46.104Z,21.39
2022-10-02T06:55:52.433Z,21.14
2022-10-02T06:59:25.367Z,21.14
2022-10-02T07:02:59.612Z,21.00
2022-10-02T07:06:26.224Z,20.89
2022-10-02T07:09:28.546Z,20.83
2022-10-02T07:13:04.548Z,20.77
2022-10-02T07:16:39.255Z,20.69
2022-10-02T07:20:22.028Z,20.62
2022-10-02T07:24:00.113Z,20.58
2022-10-02T07:27:26.392Z,20.65
2022-10-02T07:30:51.090Z,20.58
2022-10-02T07:34:06.597Z,20.49
2022-10-02T07:37:46.084Z,20.48
2022-10-02T07:41:04.902Z,20.53
2022-10-02T07:44:21.656Z,20.64
2022-10-02T07:47:38.872Z,20.65
2022-10-02T07:51:32.342Z,20.59
2022-10-02T07:54:40.758Z,20.43
2022-10-02T07:57:46.076Z,20.54
2022-10-02T08:00:53.017Z,20.45
2022-10-02T08:04:05.255Z,20.54
2022-10-02T08:07:07.378Z,20.57
2022-10-02T08:10:12.946Z,20.81
2022-10-02T08:13:31.557Z,20.74
2022-10-02T08:16:52.141Z,20.66
2022-10-02T08:20:00.047Z,20.92
2022-10-02T08:23:02.019Z,20.95
2022-10-02T08:26:11.934Z,20.87
2022-10-02T08:29:32.634Z,20.99
2022-10-02T08:32:36.933Z,21.04
2022-10-02T08:36:04.786Z,21.01
2022-10-02T08:39:12.810Z,21.03
2022-10-02T08:42:20.719Z,21.08
2022-10-02T08:45:42.010Z,21.09
2022-10-02T08:49:29.060Z,21.07
2022-10-02T08:52:59.202Z,21.04
2022-10-02T08:56:39.293Z,20.94
2022-10-02T09:00:01.162Z,20.96
2022-10-02T09:04:09.305Z,21.04
2022-10-02T09:07:48.769Z,21.04
2022-10-02T09:11:09.217Z,21.10
2022-10-02T09:14:39.311Z,21.01
2022-10-02T09:18:02.975Z,21.08
2022-10-02T09:21:27.827Z,20.92
2022-10-02T09:25:07.809Z,20.99
2022-10-02T09:28:41.958Z,20.92
2022-10-02T09:32:05.384Z,20.91
2022-10-02T09:35:27.471Z,20.95
2022-10-02T09:39:00.288Z,20.99
2022-10-02T09:42:20.444Z,20.90
2022-10-02T09:45:49.269Z,20.87
2022-10-02T09:48:54.368Z,20.89
2022-10-02T09:52:28.309Z,20.92
2022-10-02T09:56:06.980Z,20.84
2022-10-02T09:59:47.832Z,20.90
2022-10-02T10:02:53.764Z,20.94
2022-10-02T10:06:43.773Z,20.94
2022-10-02T10:10:07.537Z,20.98
2022-10-02T10:13:39.969Z,20.93
2022-10-02T10:17:20.811Z,21.07
2022-10-02T10:20:44.378Z,21.18
2022-10-02T10:24:40.769Z,21.23
2022-10-02T10:28:06.010Z,21.22
2022-10-02T10:31:35.896Z,21.23
2022-10-02T10:34:50.282Z,21.38
2022-10-02T10:38:35.037Z,21.40
2022-10-02T10:42:25.109Z,21.40
2022-10-02T10:45:59.417Z,21.37
2022-10-02T10:49:35.413Z,21.28
2022-10-02T10:53:10.501Z,21.21
2022-10-02T10:56:37.027Z,21.11
2022-10-02T10:59:46.564Z,21.16
2022-10-02T11:03:19.640Z,21.15
2022-10-02T11:06:45.247Z,20.93
2022-10-02T11:09:55.854Z,21.00
2022-10-02T11:13:03.456Z,20.99
2022-10-02T11:16:27.603Z,20.95
2022-10-02T11:19:49.578Z,20.86
2022-10-02T11:23:10.646Z,20.99
2022-10-02T11:26:43.680Z,21.11
2022-10-02T11:29:52.154Z,21.28
2022-10-02T11:33:11.819Z,21.34
2022-10-02T11:36:20.455Z,21.22
2022-10-02T11:39:47.815Z,21.14
2022-10-02T11:43:25.010Z,21.08
2022-10-02T11:46:52.814Z,21.17
2022-10-02T11:50:29.704Z,21.16
2022-10-02T11:53:55.366Z,21.19
2022-10-02T11:57:10.581Z,21.14
2022-10-02T12:00:42.943Z,21.16
2022-10-02T12:04:22.792Z,21.40
2022-10-02T12:07:53.451Z,21.72
2022-10-02T12:11:34.997Z,22.00
2022-10-02T12:14:56.364Z,22.26
2022-10-02T12:18:21.502Z,22.40
2022-10-02T12:22:01.523Z,22.54
2022-10-02T12:25:46.548Z,22.46
2022-10-02T12:29:06.668Z,22.35
2022-10-02T12:32:14.845Z,22.44
2022-10-02T12:35:27.815Z,22.49
2022-10-02T12:39:08.039Z,22.54
2022-10-02T12:42:17.182Z,22.60
2022-10-02T12:45:25.945Z,22.45
2022-10-02T12:49:03.538Z,22.36
2022-10-02T12:52:10.291Z,22.32
2022-10-02T12:55:59.369Z,22.26
2022-10-02T12:59:17.148Z,22.22
2022-10-02T13:03:01.366Z,22.31
2022-10-02T13:06:12.959Z,22.24
2022-10-02T13:09:36.080Z,21.95
2022-10-02T13:12:56.365Z,21.97
2022-10-02T13:16:25.155Z,21.98
2022-10-02T13:23:32.156Z,22.31
2022-10-02T13:26:45.264Z,22.27
2022-10-02T13:29:54.504Z,22.10
2022-10-02T13:33:19.520Z,22.03
2022-10-02T13:36:37.638Z,21.97
2022-10-02T13:40:13.526Z,21.87
2022-10-02T13:43:27.742Z,21.79
2022-10-02T13:46:45.186Z,21.69
2022-10-02T13:50:01.879Z,21.65
2022-10-02T13:53:24.522Z,21.58
2022-10-02T13:56:38.928Z,21.54
2022-10-02T13:59:46.985Z,21.44
2022-10-02T14:02:49.080Z,21.48
2022-10-02T14:06:20.331Z,21.36
2022-10-02T14:09:25.328Z,21.33
2022-10-02T14:12:33.291Z,21.15
2022-10-02T14:15:45.532Z,21.05
2022-10-02T14:19:03.597Z,20.80
2022-10-02T14:22:48.540Z,20.66
2022-10-02T14:26:27.683Z,20.40
2022-10-02T14:30:01.900Z,20.15
2022-10-02T14:33:49.892Z,20.38
2022-10-02T14:37:33.580Z,20.61
2022-10-02T14:40:55.246Z,20.71
2022-10-02T14:44:14.967Z,20.69
2022-10-02T14:47:49.129Z,20.69
2022-10-02T14:51:02.025Z,20.89
2022-10-02T14:54:13.614Z,21.04
2022-10-02T14:57:27.526Z,21.10
2022-10-02T15:00:56.101Z,21.20
2022-10-02T15:04:13.805Z,21.23
2022-10-02T15:07:21.386Z,21.10
2022-10-02T15:10:28.605Z,21.11
2022-10-02T15:13:45.782Z,21.28
2022-10-02T15:17:20.689Z,21.41
2022-10-02T15:20:46.342Z,21.39
2022-10-02T15:23:50.714Z,21.30
2022-10-02T15:27:12.107Z,21.22
2022-10-02T15:30:18.061Z,21.21
2022-10-02T15:33:53.461Z,21.10
2022-10-02T15:37:43.538Z,21.03
2022-10-02T15:40:55.501Z,20.95
2022-10-02T15:44:42.735Z,20.87
2022-10-02T15:48:28.194Z,20.75
2022-10-02T15:51:40.614Z,20.82
2022-10-02T15:55:19.646Z,20.79
2022-10-02T15:58:34.285Z,20.75
2022-10-02T16:01:52.238Z,20.85
2022-10-02T16:05:18.045Z,20.76
2022-10-02T16:08:20.077Z,20.73
2022-10-02T16:11:41.256Z,20.58
2022-10-02T16:15:26.607Z,20.52
2022-10-02T16:18:29.861Z,20.44
2022-10-02T16:21:58.444Z,20.44
2022-10-02T16:25:12.633Z,20.39
2022-10-02T16:28:39.626Z,20.40
2022-10-02T16:32:04.162Z,20.27
2022-10-02T16:35:20.529Z,20.29
2022-10-02T16:38:54.534Z,20.16
2022-10-02T16:42:02.318Z,20.11
2022-10-02T16:45:15.909Z,20.01
2022-10-02T16:48:26.343Z,19.92
2022-10-02T16:51:48.298Z,19.97
2022-10-02T16:55:05.532Z,19.96
2022-10-02T16:58:31.627Z,19.91
2022-10-02T17:01:49.547Z,19.78
2022-10-02T17:05:28.545Z,19.79
2022-10-02T17:08:33.683Z,19.73
2022-10-02T17:12:05.679Z,19.68
2022-10-02T17:15:34.352Z,19.65
2022-10-02T17:18:39.498Z,19.63
2022-10-02T17:21:47.607Z,19.57
2022-10-02T17:24:52.716Z,19.56
2022-10-02T17:28:01.900Z,19.52
2022-10-02T17:31:06.185Z,19.55
2022-10-02T17:34:17.990Z,19.54
2022-10-02T17:37:45.932Z,19.54
2022-10-02T17:41:23.506Z,19.53
2022-10-02T17:44:48.538Z,19.55
2022-10-02T17:48:39.875Z,19.59
2022-10-02T17:52:46.685Z,19.55
2022-10-02T17:56:22.687Z,19.55
2022-10-02T17:59:36.850Z,19.54
2022-10-02T18:02:52.505Z,19.35
2022-10-02T18:06:07.390Z,19.25
2022-10-02T18:09:18.604Z,19.22
2022-10-02T18:12:59.226Z,19.15
2022-10-02T18:16:11.410Z,19.14
2022-10-02T18:19:31.082Z,19.23
2022-10-02T18:22:58.655Z,19.23
2022-10-02T18:26:09.359Z,19.22
2022-10-02T18:29:40.726Z,19.18
2022-10-02T18:32:49.064Z,19.16
2022-10-02T18:35:55.169Z,19.21
2022-10-02T18:39:11.657Z,19.14
2022-10-02T18:42:25.138Z,19.14
2022-10-02T18:45:51.871Z,19.15
2022-10-02T18:49:48.143Z,19.19
2022-10-02T18:52:56.418Z,19.17
2022-10-02T18:56:03.378Z,19.22
2022-10-02T18:59:12.967Z,19.25
2022-10-02T19:02:27.451Z,19.24
2022-10-02T19:05:35.716Z,19.23
2022-10-02T19:09:08.948Z,19.10
2022-10-02T19:12:25.921Z,19.01
2022-10-02T19:15:33.540Z,18.96
2022-10-02T19:18:36.825Z,18.94
2022-10-02T19:21:39.356Z,18.88
2022-10-02T19:24:43.758Z,18.89
2022-10-02T19:27:54.104Z,18.87
2022-10-02T19:31:04.324Z,18.97
2022-10-02T19:34:17.683Z,19.02
2022-10-02T19:37:20.222Z,19.07
2022-10-02T19:40:32.198Z,19.10
2022-10-02T19:43:43.096Z,19.07
2022-10-02T19:46:50.231Z,18.98
2022-10-02T19:49:52.532Z,18.97
2022-10-02T19:53:07.268Z,19.03
2022-10-02T19:56:13.231Z,18.97
2022-10-02T19:59:19.809Z,18.85
2022-10-02T20:02:29.988Z,18.71
2022-10-02T20:05:36.063Z,18.62
2022-10-02T20:08:43.589Z,18.68
2022-10-02T20:11:50.484Z,18.72
2022-10-02T20:15:05.148Z,18.57
2022-10-02T20:18:09.371Z,18.45
2022-10-02T20:21:26.245Z,18.37
2022-10-02T20:24:33.076Z,18.49
2022-10-02T20:27:52.087Z,18.49
2022-10-02T20:31:11.397Z,18.48
2022-10-02T20:34:25.130Z,18.41
2022-10-02T20:37:31.334Z,18.38
2022-10-02T20:40:37.363Z,18.33
2022-10-02T20:43:46.841Z,18.35
2022-10-02T20:47:22.340Z,18.35
2022-10-02T20:51:09.043Z,18.11
2022-10-02T20:54:31.415Z,18.06
2022-10-02T20:58:01.953Z,18.03
2022-10-02T21:01:20.857Z,17.95
2022-10-02T21:04:41.608Z,18.03
2022-10-02T21:07:59.775Z,18.03
2022-10-02T21:11:20.146Z,18.04
2022-10-02T21:14:53.574Z,17.97
2022-10-02T21:18:01.345Z,18.04
2022-10-02T21:21:53.625Z,18.03
2022-10-02T21:25:03.037Z,18.11
2022-10-02T21:28:37.506Z,18.07
2022-10-02T21:32:05.969Z,18.06
2022-10-02T21:35:35.108Z,18.03
2022-10-02T21:39:01.778Z,18.04
2022-10-02T21:42:13.261Z,18.03
2022-10-02T21:45:49.392Z,18.06
2022-10-02T21:49:15.994Z,17.97
2022-10-02T21:52:30.074Z,17.93
2022-10-02T21:56:00.065Z,17.95
2022-10-02T21:59:46.796Z,17.96
2022-10-02T22:03:06.984Z,18.01
2022-10-02T22:06:37.599Z,17.99
2022-10-02T22:09:44.888Z,17.95
2022-10-02T22:13:24.995Z,18.03
2022-10-02T22:16:27.031Z,18.08
2022-10-02T22:19:51.952Z,18.01
2022-10-02T22:23:14.805Z,17.96
2022-10-02T22:26:24.732Z,17.98
2022-10-02T22:29:29.565Z,17.99
2022-10-02T22:32:56.249Z,18.00
2022-10-02T22:36:10.249Z,18.03
2022-10-02T22:39:14.931Z,18.03
2022-10-02T22:42:27.957Z,17.97
2022-10-02T22:46:02.653Z,17.96
2022-10-02T22:49:21.394Z,17.93
2022-10-02T22:52:26.547Z,17.95
2022-10-02T22:55:36.524Z,17.95
2022-10-02T22:59:07.004Z,17.95
2022-10-02T23:02:22.739Z,17.92
2022-10-02T23:05:43.111Z,18.06
2022-10-02T23:08:57.554Z,18.07
2022-10-02T23:12:14.593Z,18.06
2022-10-02T23:15:22.304Z,18.06
2022-10-02T23:18:50.712Z,18.00
2022-10-02T23:22:17.875Z,18.00
2022-10-02T23:25:46.325Z,17.89
2022-10-02T23:28:56.581Z,17.85
2022-10-02T23:32:04.297Z,17.91
2022-10-02T23:35:37.236Z,17.95
2022-10-02T23:38:52.069Z,17.87
2022-10-02T23:41:58.634Z,17.82
2022-10-02T23:45:10.369Z,17.81
2022-10-02T23:48:14.322Z,17.69
2022-10-02T23:51:19.072Z,17.86
2022-10-02T23:54:55.609Z,17.85
2022-10-02T23:58:00.257Z,17.95
